createdAt,value
2018-07-17T00:00:46.368Z,5.20
2018-07-17T00:03:14.579Z,5.00
2018-07-17T00:05:42.842Z,4.33
2018-07-17T00:08:11.067Z,3.83
2018-07-17T00:10:39.303Z,3.37
2018-07-17T00:13:07.532Z,3.65
2018-07-17T00:15:35.743Z,3.62
2018-07-17T00:18:03.997Z,3.80
2018-07-17T00:20:32.198Z,3.70
2018-07-17T00:23:00.414Z,4.00
2018-07-17T00:25:28.645Z,4.05
2018-07-17T00:27:57.382Z,4.03
2018-07-17T00:30:25.591Z,4.03
2018-07-17T00:32:53.957Z,4.10
2018-07-17T00:35:22.206Z,4.00
2018-07-17T00:37:50.411Z,3.85
2018-07-17T00:40:18.643Z,4.17
2018-07-17T00:42:46.880Z,4.58
2018-07-17T00:45:15.080Z,4.40
2018-07-17T00:47:43.383Z,4.83
2018-07-17T00:50:11.602Z,4.22
2018-07-17T00:52:39.843Z,4.17
2018-07-17T00:55:08.045Z,4.85
2018-07-17T00:57:36.244Z,5.00
2018-07-17T01:00:04.936Z,5.30
2018-07-17T01:02:38.555Z,5.87
2018-07-17T01:05:12.083Z,5.97
2018-07-17T01:07:45.445Z,5.70
2018-07-17T01:10:19.009Z,5.00
2018-07-17T01:12:46.458Z,4.30
2018-07-17T01:15:47.028Z,4.53
2018-07-17T01:18:14.957Z,4.42
2018-07-17T01:20:43.143Z,4.40
2018-07-17T01:23:11.322Z,4.60
2018-07-17T01:25:39.512Z,4.62
2018-07-17T01:28:07.734Z,4.70
2018-07-17T01:30:35.933Z,4.78
2018-07-17T01:33:04.107Z,4.70
2018-07-17T01:35:32.336Z,4.83
2018-07-17T01:38:00.585Z,4.65
2018-07-17T01:40:28.812Z,4.70
2018-07-17T01:42:57.075Z,4.67
2018-07-17T01:45:25.233Z,4.65
2018-07-17T01:47:53.417Z,4.47
2018-07-17T01:50:21.581Z,4.60
2018-07-17T01:52:49.774Z,4.85
2018-07-17T01:55:17.963Z,4.80
2018-07-17T01:57:46.158Z,4.22
2018-07-17T02:00:14.096Z,4.33
2018-07-17T02:02:42.289Z,5.12
2018-07-17T02:05:10.545Z,4.90
2018-07-17T02:07:38.728Z,4.45
2018-07-17T02:10:06.952Z,4.17
2018-07-17T02:12:34.908Z,4.72
2018-07-17T02:15:03.105Z,4.80
2018-07-17T02:17:31.324Z,4.62
2018-07-17T02:19:59.584Z,4.45
2018-07-17T02:22:27.791Z,4.70
2018-07-17T02:24:56.005Z,4.53
2018-07-17T02:27:24.620Z,4.47
2018-07-17T02:29:52.825Z,4.90
2018-07-17T02:32:21.026Z,4.45
2018-07-17T02:34:49.261Z,4.70
2018-07-17T02:37:17.458Z,4.72
2018-07-17T02:39:45.667Z,4.97
2018-07-17T02:42:13.926Z,4.28
2018-07-17T02:44:42.099Z,4.87
2018-07-17T02:47:10.275Z,4.85
2018-07-17T02:49:38.507Z,4.90
2018-07-17T02:52:06.712Z,4.83
2018-07-17T02:54:34.888Z,5.22
2018-07-17T02:57:03.084Z,5.55
2018-07-17T02:59:31.298Z,5.10
2018-07-17T03:01:59.504Z,5.03
2018-07-17T03:04:27.724Z,5.08
2018-07-17T03:06:55.982Z,5.37
2018-07-17T03:09:24.109Z,5.15
2018-07-17T03:11:52.368Z,5.00
2018-07-17T03:14:20.660Z,5.12
2018-07-17T03:16:48.863Z,5.10
2018-07-17T03:19:17.083Z,4.90
2018-07-17T03:21:45.277Z,5.28
2018-07-17T03:24:13.503Z,5.12
2018-07-17T03:26:41.726Z,4.92
2018-07-17T03:29:09.687Z,4.92
2018-07-17T03:31:37.875Z,4.90
2018-07-17T03:34:06.084Z,4.72
2018-07-17T03:36:34.314Z,5.05
2018-07-17T03:39:02.479Z,5.08
2018-07-17T03:41:30.680Z,4.87
2018-07-17T03:43:58.866Z,5.35
2018-07-17T03:46:27.040Z,4.47
2018-07-17T03:48:55.024Z,5.22
2018-07-17T03:51:23.243Z,5.15
2018-07-17T03:53:51.441Z,5.08
2018-07-17T03:56:19.675Z,4.95
2018-07-17T03:58:47.882Z,5.12
2018-07-17T04:01:16.101Z,4.85
2018-07-17T04:03:44.270Z,4.58
2018-07-17T04:06:12.473Z,4.62
2018-07-17T04:08:40.733Z,4.90
2018-07-17T04:11:08.889Z,5.20
2018-07-17T04:13:37.089Z,4.65
2018-07-17T04:16:05.313Z,4.70
2018-07-17T04:18:33.482Z,4.80
2018-07-17T04:21:01.661Z,5.20
2018-07-17T04:23:29.864Z,4.90
2018-07-17T04:25:58.081Z,5.37
2018-07-17T04:28:26.321Z,4.70
2018-07-17T04:30:54.523Z,4.97
2018-07-17T04:33:22.801Z,4.85
2018-07-17T04:35:51.015Z,5.08
2018-07-17T04:38:19.311Z,4.78
2018-07-17T04:40:47.446Z,5.20
2018-07-17T04:43:15.648Z,4.72
2018-07-17T04:45:43.855Z,5.37
2018-07-17T04:48:12.061Z,5.62
2018-07-17T04:50:40.262Z,4.70
2018-07-17T04:53:08.450Z,4.97
2018-07-17T04:55:36.644Z,4.90
2018-07-17T04:58:04.907Z,5.20
2018-07-17T05:00:33.113Z,4.80
2018-07-17T05:03:01.325Z,5.00
2018-07-17T05:05:29.546Z,5.35
2018-07-17T05:07:57.770Z,5.25
2018-07-17T05:10:25.985Z,5.30
2018-07-17T05:12:54.188Z,5.10
2018-07-17T05:15:22.380Z,5.28
2018-07-17T05:17:50.586Z,5.08
2018-07-17T05:20:18.853Z,5.40
2018-07-17T05:22:47.080Z,5.53
2018-07-17T05:25:15.233Z,5.20
2018-07-17T05:27:43.207Z,5.35
2018-07-17T05:30:11.392Z,5.60
2018-07-17T05:32:39.612Z,5.30
2018-07-17T05:35:07.878Z,5.50
2018-07-17T05:37:36.095Z,4.97
2018-07-17T05:40:04.896Z,5.17
2018-07-17T05:42:33.118Z,5.08
2018-07-17T05:45:01.389Z,5.05
2018-07-17T05:47:29.524Z,5.10
2018-07-17T05:49:57.751Z,5.00
2018-07-17T05:52:25.991Z,5.25
2018-07-17T05:54:54.212Z,5.15
2018-07-17T05:57:22.420Z,5.05
2018-07-17T05:59:50.623Z,5.42
2018-07-17T06:02:18.861Z,5.05
2018-07-17T06:04:47.042Z,5.12
2018-07-17T06:07:15.235Z,5.20
2018-07-17T06:09:43.445Z,4.75
2018-07-17T06:12:11.671Z,4.92
2018-07-17T06:14:39.847Z,5.03
2018-07-17T06:17:08.052Z,4.90
2018-07-17T06:19:36.258Z,5.12
2018-07-17T06:22:04.522Z,5.53
2018-07-17T06:24:32.640Z,5.05
2018-07-17T06:27:00.601Z,4.72
2018-07-17T06:29:28.819Z,5.33
2018-07-17T06:31:57.065Z,5.70
2018-07-17T06:34:25.009Z,5.25
2018-07-17T06:36:53.213Z,5.37
2018-07-17T06:39:22.802Z,4.75
2018-07-17T06:41:52.590Z,5.12
2018-07-17T06:44:23.113Z,5.30
2018-07-17T06:46:53.135Z,5.35
2018-07-17T06:49:22.628Z,5.12
2018-07-17T06:51:50.848Z,5.50
2018-07-17T06:54:19.064Z,5.78
2018-07-17T06:56:47.260Z,5.35
2018-07-17T06:59:15.473Z,5.90
2018-07-17T07:01:43.683Z,6.05
2018-07-17T07:04:11.917Z,5.85
2018-07-17T07:06:40.113Z,5.60
2018-07-17T07:09:09.645Z,6.60
2018-07-17T07:11:37.954Z,6.17
2018-07-17T07:14:06.216Z,5.75
2018-07-17T07:16:34.432Z,5.42
2018-07-17T07:19:02.609Z,5.28
2018-07-17T07:21:31.015Z,5.58
2018-07-17T07:23:59.226Z,5.87
2018-07-17T07:26:27.443Z,5.55
2018-07-17T07:28:55.914Z,5.35
2018-07-17T07:31:24.163Z,5.70
2018-07-17T07:33:52.364Z,5.05
2018-07-17T07:36:20.555Z,4.90
2018-07-17T07:38:48.773Z,5.42
2018-07-17T07:41:16.978Z,4.42
2018-07-17T07:43:45.176Z,5.12
2018-07-17T07:46:13.387Z,4.72
2018-07-17T07:48:41.335Z,4.92
2018-07-17T07:51:09.564Z,5.08
2018-07-17T07:53:37.767Z,4.75
2018-07-17T07:56:06.134Z,5.03
2018-07-17T07:58:34.359Z,4.92
2018-07-17T08:01:02.573Z,5.03
2018-07-17T08:03:30.780Z,4.72
2018-07-17T08:05:58.994Z,5.40
2018-07-17T08:08:27.232Z,4.55
2018-07-17T08:10:55.467Z,5.05
2018-07-17T08:13:23.660Z,4.78
2018-07-17T08:15:51.617Z,5.35
2018-07-17T08:18:19.800Z,4.85
2018-07-17T08:20:48.008Z,4.85
2018-07-17T08:23:16.220Z,4.70
2018-07-17T08:25:44.438Z,4.92
2018-07-17T08:28:12.622Z,4.58
2018-07-17T08:30:40.575Z,4.60
2018-07-17T08:33:08.772Z,4.87
2018-07-17T08:35:37.062Z,4.50
2018-07-17T08:38:05.269Z,5.10
2018-07-17T08:40:33.476Z,4.55
2018-07-17T08:43:01.667Z,4.78
2018-07-17T08:45:29.866Z,4.67
2018-07-17T08:47:58.085Z,4.50
2018-07-17T08:50:26.346Z,4.62
2018-07-17T08:52:54.581Z,4.45
2018-07-17T08:55:22.850Z,4.70
2018-07-17T08:57:51.189Z,4.53
2018-07-17T09:00:19.436Z,4.97
2018-07-17T09:02:47.640Z,4.50
2018-07-17T09:05:15.873Z,4.62
2018-07-17T09:07:44.084Z,4.72
2018-07-17T09:10:12.675Z,4.53
2018-07-17T09:12:40.955Z,5.58
2018-07-17T09:15:09.165Z,4.62
2018-07-17T09:17:37.408Z,4.85
2018-07-17T09:20:05.766Z,5.15
2018-07-17T09:22:34.000Z,4.50
2018-07-17T09:25:01.972Z,4.60
2018-07-17T09:27:29.948Z,4.40
2018-07-17T09:29:58.158Z,5.30
2018-07-17T09:32:26.427Z,4.85
2018-07-17T09:34:54.677Z,5.37
2018-07-17T09:37:22.914Z,4.97
2018-07-17T09:39:51.101Z,4.78
2018-07-17T09:42:19.378Z,4.90
2018-07-17T09:44:47.604Z,4.95
2018-07-17T09:47:15.975Z,4.87
2018-07-17T09:49:44.160Z,4.65
2018-07-17T09:52:12.371Z,4.50
2018-07-17T09:54:40.600Z,4.62
2018-07-17T09:57:08.810Z,5.15
2018-07-17T09:59:36.760Z,5.50
2018-07-17T10:02:10.347Z,5.00
2018-07-17T10:04:38.613Z,5.08
2018-07-17T10:07:06.533Z,4.83
2018-07-17T10:09:34.549Z,5.12
2018-07-17T10:12:02.755Z,4.72
2018-07-17T10:14:31.021Z,4.60
2018-07-17T10:16:58.947Z,4.90
2018-07-17T10:19:28.198Z,4.97
2018-07-17T10:21:56.589Z,4.87
2018-07-17T10:24:24.798Z,4.28
2018-07-17T10:26:53.036Z,4.78
2018-07-17T10:29:21.254Z,4.35
2018-07-17T10:31:49.491Z,4.30
2018-07-17T10:34:17.678Z,4.45
2018-07-17T10:36:45.890Z,4.22
2018-07-17T10:39:14.074Z,4.55
2018-07-17T10:41:42.272Z,4.30
2018-07-17T10:44:10.487Z,4.65
2018-07-17T10:46:39.109Z,4.95
2018-07-17T10:49:07.387Z,4.42
2018-07-17T10:51:35.625Z,4.40
2018-07-17T10:54:04.042Z,4.53
2018-07-17T10:56:32.233Z,4.95
2018-07-17T10:59:00.441Z,4.45
2018-07-17T11:01:28.417Z,4.92
2018-07-17T11:03:56.618Z,3.87
2018-07-17T11:06:24.855Z,4.65
2018-07-17T11:08:53.073Z,3.95
2018-07-17T11:11:21.288Z,3.95
2018-07-17T11:13:49.738Z,4.03
2018-07-17T11:16:17.992Z,3.95
2018-07-17T11:18:46.217Z,3.55
2018-07-17T11:21:14.481Z,3.40
2018-07-17T11:23:42.708Z,3.60
2018-07-17T11:26:10.926Z,3.77
2018-07-17T11:28:39.149Z,3.75
2018-07-17T11:31:07.369Z,3.85
2018-07-17T11:33:35.354Z,3.92
2018-07-17T11:36:03.541Z,3.75
2018-07-17T11:38:31.895Z,3.62
2018-07-17T11:41:00.126Z,3.67
2018-07-17T11:43:28.323Z,3.87
2018-07-17T11:46:03.045Z,3.90
2018-07-17T11:48:31.288Z,3.45
2018-07-17T11:50:59.509Z,3.10
2018-07-17T11:53:27.753Z,3.25
2018-07-17T11:55:55.962Z,2.95
2018-07-17T11:58:24.228Z,2.80
2018-07-17T12:00:52.474Z,3.02
2018-07-17T12:03:20.657Z,2.80
2018-07-17T12:05:48.933Z,3.02
2018-07-17T12:08:17.142Z,2.90
2018-07-17T12:10:45.389Z,2.80
2018-07-17T12:13:13.329Z,2.70
2018-07-17T12:15:41.560Z,3.00
2018-07-17T12:18:09.772Z,3.30
2018-07-17T12:20:38.108Z,2.85
2018-07-17T12:23:05.925Z,2.90
2018-07-17T12:25:34.162Z,2.67
2018-07-17T12:28:02.339Z,3.05
2018-07-17T12:30:30.569Z,2.37
2018-07-17T12:32:58.773Z,2.80
2018-07-17T12:35:27.038Z,2.92
2018-07-17T12:37:55.272Z,2.65
2018-07-17T12:40:23.500Z,3.33
2018-07-17T12:42:51.752Z,2.80
2018-07-17T12:45:19.982Z,2.65
2018-07-17T12:47:48.205Z,2.95
2018-07-17T12:50:16.460Z,3.35
2018-07-17T12:52:44.433Z,2.77
2018-07-17T12:55:12.407Z,2.92
2018-07-17T12:57:41.534Z,3.05
2018-07-17T13:00:12.376Z,3.08
2018-07-17T13:02:40.677Z,3.20
2018-07-17T13:05:08.903Z,3.05
2018-07-17T13:07:36.868Z,3.12
2018-07-17T13:10:05.422Z,3.10
2018-07-17T13:12:33.725Z,3.05
2018-07-17T13:15:02.833Z,3.50
2018-07-17T13:17:31.127Z,3.50
2018-07-17T13:19:59.323Z,3.80
2018-07-17T13:22:27.568Z,3.50
2018-07-17T13:24:55.838Z,3.40
2018-07-17T13:27:24.054Z,3.17
2018-07-17T13:29:52.044Z,3.10
2018-07-17T13:32:20.237Z,3.12
2018-07-17T13:34:48.833Z,3.40
2018-07-17T13:37:17.184Z,3.00
2018-07-17T13:39:45.190Z,3.47
2018-07-17T13:42:13.442Z,3.27
2018-07-17T13:44:41.689Z,3.35
2018-07-17T13:47:09.922Z,3.30
2018-07-17T13:49:38.132Z,3.27
2018-07-17T13:52:06.385Z,3.37
2018-07-17T13:54:34.614Z,3.15
2018-07-17T13:57:02.859Z,3.40
2018-07-17T13:59:31.068Z,3.35
2018-07-17T14:01:59.305Z,3.05
2018-07-17T14:04:27.562Z,3.40
2018-07-17T14:06:55.850Z,3.30
2018-07-17T14:09:24.067Z,3.87
2018-07-17T14:11:52.293Z,3.22
2018-07-17T14:14:20.263Z,3.52
2018-07-17T14:16:48.238Z,3.52
2018-07-17T14:19:16.200Z,3.65
2018-07-17T14:21:44.473Z,3.30
2018-07-17T14:24:12.706Z,3.17
2018-07-17T14:26:40.931Z,3.58
2018-07-17T14:29:09.189Z,3.30
2018-07-17T14:31:37.444Z,3.22
2018-07-17T14:34:05.749Z,3.75
2018-07-17T14:36:33.946Z,3.12
2018-07-17T14:39:02.181Z,3.52
2018-07-17T14:41:30.459Z,3.20
2018-07-17T14:43:58.623Z,3.45
2018-07-17T14:46:28.254Z,3.33
2018-07-17T14:48:58.531Z,3.45
2018-07-17T14:51:26.565Z,3.50
2018-07-17T14:53:54.788Z,3.42
2018-07-17T14:56:23.005Z,3.25
2018-07-17T14:58:51.275Z,3.25
2018-07-17T15:01:19.487Z,3.80
2018-07-17T15:03:47.668Z,3.50
2018-07-17T15:06:15.879Z,3.47
2018-07-17T15:08:44.167Z,3.15
2018-07-17T15:11:12.372Z,3.30
2018-07-17T15:13:40.328Z,3.72
2018-07-17T15:16:08.574Z,3.47
2018-07-17T15:18:36.761Z,3.62
2018-07-17T15:21:04.973Z,3.40
2018-07-17T15:23:33.198Z,3.20
2018-07-17T15:26:01.405Z,3.65
2018-07-17T15:28:29.654Z,3.60
2018-07-17T15:30:57.868Z,3.80
2018-07-17T15:33:26.179Z,3.87
2018-07-17T15:35:54.155Z,3.65
2018-07-17T15:38:22.388Z,3.70
2018-07-17T15:40:50.291Z,3.70
2018-07-17T15:43:18.541Z,3.70
2018-07-17T15:45:46.755Z,3.80
2018-07-17T15:48:14.923Z,3.55
2018-07-17T15:50:43.133Z,3.55
2018-07-17T15:53:11.345Z,3.70
2018-07-17T15:55:39.549Z,3.95
2018-07-17T15:58:07.804Z,3.65
2018-07-17T16:00:36.021Z,4.00
2018-07-17T16:03:04.254Z,3.60
2018-07-17T16:05:32.560Z,3.90
2018-07-17T16:08:00.794Z,4.03
2018-07-17T16:10:28.727Z,5.47
2018-07-17T16:12:56.921Z,5.28
2018-07-17T16:15:25.135Z,4.72
2018-07-17T16:17:53.324Z,4.40
2018-07-17T16:20:21.571Z,3.55
2018-07-17T16:22:49.502Z,3.42
2018-07-17T16:25:17.722Z,2.98
2018-07-17T16:27:45.674Z,2.80
2018-07-17T16:30:13.913Z,2.50
2018-07-17T16:32:42.119Z,2.22
2018-07-17T16:35:10.346Z,2.42
2018-07-17T16:37:38.543Z,2.67
2018-07-17T16:40:06.780Z,2.80
2018-07-17T16:42:34.960Z,2.42
2018-07-17T16:45:03.171Z,2.33
2018-07-17T16:47:31.352Z,2.87
2018-07-17T16:49:59.546Z,2.50
2018-07-17T16:52:27.730Z,2.85
2018-07-17T16:54:55.948Z,2.72
2018-07-17T16:57:24.222Z,2.20
2018-07-17T16:59:52.446Z,1.95
2018-07-17T17:02:20.399Z,2.75
2018-07-17T17:04:48.601Z,2.65
2018-07-17T17:07:16.807Z,2.60
2018-07-17T17:09:45.001Z,2.80
2018-07-17T17:12:13.242Z,2.47
2018-07-17T17:14:41.201Z,2.60
2018-07-17T17:17:09.160Z,2.40
2018-07-17T17:19:37.349Z,2.30
2018-07-17T17:22:05.318Z,2.25
2018-07-17T17:24:33.556Z,2.25
2018-07-17T17:27:01.714Z,2.72
2018-07-17T17:29:29.977Z,2.95
2018-07-17T17:31:58.185Z,3.40
2018-07-17T17:34:26.367Z,3.22
2018-07-17T17:36:54.580Z,3.22
2018-07-17T17:39:22.803Z,3.52
2018-07-17T17:41:50.960Z,3.40
2018-07-17T17:44:19.173Z,3.15
2018-07-17T17:46:47.402Z,3.33
2018-07-17T17:49:15.573Z,3.62
2018-07-17T17:51:43.850Z,3.52
2018-07-17T17:54:12.021Z,3.35
2018-07-17T17:56:40.225Z,3.40
2018-07-17T17:59:08.475Z,3.60
2018-07-17T18:01:36.664Z,3.12
2018-07-17T18:04:05.068Z,3.12
2018-07-17T18:06:33.266Z,3.65
2018-07-17T18:09:01.224Z,3.00
2018-07-17T18:11:29.492Z,3.27
2018-07-17T18:13:57.722Z,3.27
2018-07-17T18:16:25.960Z,3.25
2018-07-17T18:18:54.182Z,3.52
2018-07-17T18:21:22.398Z,2.90
2018-07-17T18:23:50.619Z,3.10
2018-07-17T18:26:18.831Z,3.10
2018-07-17T18:28:47.066Z,3.10
2018-07-17T18:31:15.282Z,3.83
2018-07-17T18:33:43.488Z,3.10
2018-07-17T18:36:11.742Z,3.00
2018-07-17T18:38:39.948Z,2.90
2018-07-17T18:41:08.202Z,2.95
2018-07-17T18:43:36.417Z,2.90
2018-07-17T18:46:04.728Z,3.25
2018-07-17T18:48:32.938Z,3.22
2018-07-17T18:51:01.175Z,3.08
2018-07-17T18:53:29.362Z,3.12
2018-07-17T18:55:57.565Z,3.12
2018-07-17T18:58:25.785Z,3.12
2018-07-17T19:00:53.747Z,3.40
2018-07-17T19:03:21.945Z,3.15
2018-07-17T19:05:50.252Z,3.10
2018-07-17T19:08:18.461Z,3.22
2018-07-17T19:10:46.408Z,3.75
2018-07-17T19:13:14.622Z,3.67
2018-07-17T19:15:42.801Z,3.40
2018-07-17T19:18:10.992Z,3.42
2018-07-17T19:20:39.188Z,3.67
2018-07-17T19:23:07.421Z,3.72
2018-07-17T19:25:35.641Z,3.65
2018-07-17T19:28:03.867Z,3.35
2018-07-17T19:30:32.094Z,3.40
